Time,TemperatureF,DewpointF,PressureIn,WindDirection,WindDirectionDegrees,WindSpeedMPH,WindSpeedGustMPH,Humidity,HourlyPrecipIn,Conditions,Clouds,dailyrainin,SoftwareType,DateUTC
2013-01-14 00:05:00,47.0,45.6,30.02,NNW,332,7.0,13.0,95,0.00,,,0.00,Wunderground v.1.15,2013-01-14 05:05:00,
2013-01-14 00:10:00,46.5,45.1,30.02,West,270,7.0,7.0,95,0.00,,,0.00,Wunderground v.1.15,2013-01-14 05:10:00,
2013-01-14 00:20:00,45.5,43.6,30.04,West,280,5.0,8.0,93,0.00,,,0.00,Wunderground v.1.15,2013-01-14 05:20:00,
2013-01-14 00:30:00,44.8,42.6,30.05,WNW,291,6.0,11.0,92,0.00,,,0.00,Wunderground v.1.15,2013-01-14 05:30:00,
2013-01-14 00:40:00,44.5,42.3,30.05,NNW,347,4.0,5.0,92,0.00,,,0.00,Wunderground v.1.15,2013-01-14 05:40:00,
2013-01-14 00:45:00,44.3,42.1,30.06,West,274,4.0,5.0,92,0.00,,,0.00,Wunderground v.1.15,2013-01-14 05:45:00,
2013-01-14 00:50:00,44.2,42.0,30.06,West,275,3.0,3.0,92,0.00,,,0.00,Wunderground v.1.15,2013-01-14 05:50:00,
2013-01-14 01:00:00,43.9,42.0,30.07,West,272,4.0,7.0,93,0.00,,,0.00,Wunderground v.1.15,2013-01-14 06:00:00,
2013-01-14 01:10:00,43.6,41.7,30.07,WNW,291,2.0,3.0,93,0.00,,,0.00,Wunderground v.1.15,2013-01-14 06:10:00,
2013-01-14 01:20:00,43.6,42.0,30.08,WNW,289,1.0,1.0,94,0.00,,,0.00,Wunderground v.1.15,2013-01-14 06:20:00,
2013-01-14 01:29:00,43.5,41.6,30.09,West,268,1.0,2.0,93,0.00,,,0.00,Wunderground v.1.15,2013-01-14 06:29:00,
2013-01-14 01:35:00,43.5,41.6,30.09,WNW,295,3.0,3.0,93,0.00,,,0.00,Wunderground v.1.15,2013-01-14 06:35:00,
2013-01-14 01:40:00,43.3,41.1,30.09,WNW,294,3.0,5.0,92,0.00,,,0.00,Wunderground v.1.15,2013-01-14 06:40:00,
2013-01-14 01:50:00,43.3,40.8,30.09,WNW,285,5.0,5.0,91,0.00,,,0.00,Wunderground v.1.15,2013-01-14 06:50:00,
2013-01-14 02:00:00,43.3,40.6,30.09,West,265,4.0,4.0,90,0.00,,,0.00,Wunderground v.1.15,2013-01-14 07:00:00,
2013-01-14 02:10:00,43.2,40.2,30.09,WNW,282,3.0,3.0,89,0.00,,,0.00,Wunderground v.1.15,2013-01-14 07:10:00,
2013-01-14 02:20:00,43.1,40.1,30.10,West,278,3.0,3.0,89,0.00,,,0.00,Wunderground v.1.15,2013-01-14 07:20:00,
2013-01-14 02:30:00,42.9,39.9,30.12,WNW,284,2.0,2.0,89,0.00,,,0.00,Wunderground v.1.15,2013-01-14 07:30:00,
2013-01-14 02:35:00,42.8,39.5,30.12,WNW,292,3.0,3.0,88,0.00,,,0.00,Wunderground v.1.15,2013-01-14 07:35:00,
2013-01-14 02:44:00,42.6,39.3,30.13,WNW,292,3.0,3.0,88,0.00,,,0.00,Wunderground v.1.15,2013-01-14 07:44:00,
2013-01-14 02:50:00,42.5,39.2,30.13,West,267,2.0,2.0,88,0.00,,,0.00,Wunderground v.1.15,2013-01-14 07:50:00,
2013-01-14 02:55:00,42.5,39.2,30.13,West,268,2.0,2.0,88,0.00,,,0.00,Wunderground v.1.15,2013-01-14 07:55:00,
2013-01-14 03:05:00,42.3,38.7,30.14,NW,304,1.0,1.0,87,0.00,,,0.00,Wunderground v.1.15,2013-01-14 08:05:00,
2013-01-14 03:10:00,42.3,38.7,30.14,West,270,1.0,1.0,87,0.00,,,0.00,Wunderground v.1.15,2013-01-14 08:10:00,
2013-01-14 03:20:00,42.3,38.7,30.14,West,272,1.0,1.0,87,0.00,,,0.00,Wunderground v.1.15,2013-01-14 08:20:00,
2013-01-14 03:30:00,42.3,38.4,30.15,West,278,1.0,2.0,86,0.00,,,0.00,Wunderground v.1.15,2013-01-14 08:30:00,
2013-01-14 03:40:00,42.3,38.4,30.15,West,281,1.0,2.0,86,0.00,,,0.00,Wunderground v.1.15,2013-01-14 08:40:00,
2013-01-14 03:45:00,42.3,38.4,30.15,West,280,1.0,2.0,86,0.00,,,0.00,Wunderground v.1.15,2013-01-14 08:45:00,
2013-01-14 03:55:00,42.2,38.3,30.15,West,278,1.0,1.0,86,0.00,,,0.00,Wunderground v.1.15,2013-01-14 08:55:00,
2013-01-14 04:00:00,42.1,38.2,30.16,West,281,1.0,1.0,86,0.00,,,0.00,Wunderground v.1.15,2013-01-14 09:00:00,
2013-01-14 04:10:00,41.8,37.6,30.16,West,278,2.0,2.0,85,0.00,,,0.00,Wunderground v.1.15,2013-01-14 09:10:00,
2013-01-14 04:20:00,41.6,37.1,30.16,WNW,292,3.0,3.0,84,0.00,,,0.00,Wunderground v.1.15,2013-01-14 09:20:00,
2013-01-14 04:30:00,41.6,37.1,30.17,WNW,295,2.0,2.0,84,0.00,,,0.00,Wunderground v.1.15,2013-01-14 09:30:00,
2013-01-14 04:35:00,41.6,37.1,30.17,WNW,294,2.0,2.0,84,0.00,,,0.00,Wunderground v.1.15,2013-01-14 09:35:00,
2013-01-14 04:45:00,41.3,36.8,30.17,West,261,2.0,3.0,84,0.00,,,0.00,Wunderground v.1.15,2013-01-14 09:45:00,
2013-01-14 04:55:00,41.2,36.7,30.17,WSW,251,2.0,2.0,84,0.00,,,0.00,Wunderground v.1.15,2013-01-14 09:55:00,
2013-01-14 05:05:00,41.1,36.6,30.18,WNW,299,3.0,3.0,84,0.00,,,0.00,Wunderground v.1.15,2013-01-14 10:05:00,
2013-01-14 05:15:00,40.9,36.1,30.18,West,274,3.0,3.0,83,0.00,,,0.00,Wunderground v.1.15,2013-01-14 10:15:00,
2013-01-14 05:25:00,40.9,36.4,30.18,West,280,4.0,5.0,84,0.00,,,0.00,Wunderground v.1.15,2013-01-14 10:25:00,
2013-01-14 05:30:00,40.8,36.3,30.18,West,267,3.0,3.0,84,0.00,,,0.00,Wunderground v.1.15,2013-01-14 10:30:00,
2013-01-14 05:40:00,40.6,35.8,30.18,SW,234,4.0,4.0,83,0.00,,,0.00,Wunderground v.1.15,2013-01-14 10:40:00,
2013-01-14 05:50:00,40.5,35.7,30.19,WNW,285,2.0,2.0,83,0.00,,,0.00,Wunderground v.1.15,2013-01-14 10:50:00,
2013-01-14 06:00:00,40.3,34.9,30.20,West,275,2.0,2.0,81,0.00,,,0.00,Wunderground v.1.15,2013-01-14 11:00:00,
2013-01-14 06:05:00,40.3,34.9,30.20,WNW,301,2.0,2.0,81,0.00,,,0.00,Wunderground v.1.15,2013-01-14 11:05:00,
2013-01-14 06:15:00,39.9,34.5,30.20,WNW,299,4.0,4.0,81,0.00,,,0.00,Wunderground v.1.15,2013-01-14 11:15:00,
2013-01-14 06:25:00,39.8,34.1,30.20,WSW,254,4.0,4.0,80,0.00,,,0.00,Wunderground v.1.15,2013-01-14 11:25:00,
2013-01-14 06:30:00,39.6,33.9,30.22,West,280,4.0,7.0,80,0.00,,,0.00,Wunderground v.1.15,2013-01-14 11:30:00,
2013-01-14 06:40:00,39.5,33.5,30.22,NNW,347,3.0,3.0,79,0.00,,,0.00,Wunderground v.1.15,2013-01-14 11:40:00,
2013-01-14 06:45:00,39.3,33.3,30.22,WNW,285,2.0,3.0,79,0.00,,,0.00,Wunderground v.1.15,2013-01-14 11:45:00,
2013-01-14 06:55:00,39.3,33.3,30.22,WNW,291,1.0,1.0,79,0.00,,,0.00,Wunderground v.1.15,2013-01-14 11:55:00,
2013-01-14 07:05:00,39.2,33.2,30.23,West,275,2.0,2.0,79,0.00,,,0.00,Wunderground v.1.15,2013-01-14 12:05:00,
2013-01-14 07:10:00,39.1,32.8,30.23,West,280,2.0,5.0,78,0.00,,,0.00,Wunderground v.1.15,2013-01-14 12:10:00,
2013-01-14 07:20:00,38.9,32.3,30.23,West,280,1.0,1.0,77,0.00,,,0.00,Wunderground v.1.15,2013-01-14 12:20:00,
2013-01-14 07:30:00,38.8,31.9,30.24,West,274,1.0,1.0,76,0.00,,,0.00,Wunderground v.1.15,2013-01-14 12:30:00,
2013-01-14 07:40:00,38.6,31.7,30.24,WNW,287,2.0,2.0,76,0.00,,,0.00,Wunderground v.1.15,2013-01-14 12:40:00,
2013-01-14 07:50:00,38.6,31.7,30.25,WNW,288,1.0,1.0,76,0.00,,,0.00,Wunderground v.1.15,2013-01-14 12:50:00,
2013-01-14 07:55:00,38.6,31.7,30.25,WNW,289,0.0,1.0,76,0.00,,,0.00,Wunderground v.1.15,2013-01-14 12:55:00,
2013-01-14 08:05:00,38.5,31.6,30.27,West,270,1.0,1.0,76,0.00,,,0.00,Wunderground v.1.15,2013-01-14 13:05:00,
2013-01-14 08:10:00,38.6,31.7,30.27,West,280,1.0,3.0,76,0.00,,,0.00,Wunderground v.1.15,2013-01-14 13:10:00,
2013-01-14 08:20:00,38.6,32.0,30.28,WNW,282,1.0,1.0,77,0.00,,,0.00,Wunderground v.1.15,2013-01-14 13:20:00,
2013-01-14 08:30:00,38.5,31.9,30.29,WNW,299,1.0,1.0,77,0.00,,,0.00,Wunderground v.1.15,2013-01-14 13:30:00,
2013-01-14 08:35:00,38.3,31.7,30.29,WNW,284,1.0,1.0,77,0.00,,,0.00,Wunderground v.1.15,2013-01-14 13:35:00,
2013-01-14 08:45:00,37.8,31.6,30.30,West,268,3.0,8.0,78,0.00,,,0.00,Wunderground v.1.15,2013-01-14 13:45:00,
2013-01-14 08:50:00,37.6,31.7,30.30,WNW,282,3.0,5.0,79,0.00,,,0.00,Wunderground v.1.15,2013-01-14 13:50:00,
2013-01-14 09:00:00,37.2,31.3,30.30,West,281,3.0,7.0,79,0.00,,,0.00,Wunderground v.1.15,2013-01-14 14:00:00,
2013-01-14 09:10:00,37.2,31.3,30.30,West,277,3.0,5.0,79,0.00,,,0.00,Wunderground v.1.15,2013-01-14 14:10:00,
2013-01-14 09:20:00,37.2,31.3,30.31,WNW,287,3.0,3.0,79,0.00,,,0.00,Wunderground v.1.15,2013-01-14 14:20:00,
2013-01-14 09:25:00,37.2,31.0,30.31,West,278,3.0,3.0,78,0.00,,,0.00,Wunderground v.1.15,2013-01-14 14:25:00,
2013-01-14 09:30:00,37.2,31.0,30.32,West,268,3.0,3.0,78,0.00,,,0.00,Wunderground v.1.15,2013-01-14 14:30:00,
2013-01-14 09:40:00,37.5,30.9,30.32,WNW,292,2.0,3.0,77,0.00,,,0.00,Wunderground v.1.15,2013-01-14 14:40:00,
2013-01-14 09:50:00,37.9,31.3,30.31,WNW,298,2.0,2.0,77,0.00,,,0.00,Wunderground v.1.15,2013-01-14 14:50:00,
2013-01-14 10:00:00,37.5,30.6,30.30,West,271,2.0,3.0,76,0.00,,,0.00,Wunderground v.1.15,2013-01-14 15:00:00,
2013-01-14 10:10:00,37.0,30.8,30.30,West,275,2.0,2.0,78,0.00,,,0.00,Wunderground v.1.15,2013-01-14 15:10:00,
2013-01-14 10:15:00,36.9,30.4,30.31,North,1,1.0,2.0,77,0.00,,,0.00,Wunderground v.1.15,2013-01-14 15:15:00,
2013-01-14 10:25:00,36.5,30.0,30.31,North,357,1.0,1.0,77,0.00,,,0.00,Wunderground v.1.15,2013-01-14 15:25:00,
2013-01-14 10:30:00,36.6,30.1,30.32,West,275,1.0,1.0,77,0.00,,,0.00,Wunderground v.1.15,2013-01-14 15:30:00,
2013-01-14 10:40:00,36.5,29.3,30.32,West,275,3.0,3.0,75,0.00,,,0.00,Wunderground v.1.15,2013-01-14 15:40:00,
2013-01-14 10:50:00,36.6,29.4,30.33,NNW,347,1.0,1.0,75,0.00,,,0.00,Wunderground v.1.15,2013-01-14 15:50:00,
2013-01-14 11:00:00,37.0,30.1,30.32,NW,320,1.0,1.0,76,0.00,,,0.00,Wunderground v.1.15,2013-01-14 16:00:00,
2013-01-14 11:10:00,37.6,29.7,30.32,North,11,2.0,2.0,73,0.00,,,0.00,Wunderground v.1.15,2013-01-14 16:10:00,
2013-01-14 11:20:00,38.2,29.6,30.31,North,8,2.0,4.0,71,0.00,,,0.00,Wunderground v.1.15,2013-01-14 16:20:00,
2013-01-14 11:25:00,38.5,29.9,30.31,West,271,2.0,7.0,71,0.00,,,0.00,Wunderground v.1.15,2013-01-14 16:25:00,
2013-01-14 11:30:00,38.0,29.1,30.31,West,268,3.0,3.0,70,0.00,,,0.00,Wunderground v.1.15,2013-01-14 16:30:00,
2013-01-14 11:40:00,37.6,29.4,30.31,West,265,5.0,5.0,72,0.00,,,0.00,Wunderground v.1.15,2013-01-14 16:40:00,
2013-01-14 11:50:00,38.0,29.8,30.31,North,0,1.0,3.0,72,0.00,,,0.00,Wunderground v.1.15,2013-01-14 16:50:00,
2013-01-14 12:00:00,37.9,29.3,30.30,WNW,301,2.0,2.0,71,0.00,,,0.00,Wunderground v.1.15,2013-01-14 17:00:00,
2013-01-14 12:10:00,37.6,28.7,30.30,NNE,23,3.0,3.0,70,0.00,,,0.00,Wunderground v.1.15,2013-01-14 17:10:00,
2013-01-14 12:15:00,37.6,28.7,30.28,West,281,3.0,3.0,70,0.00,,,0.00,Wunderground v.1.15,2013-01-14 17:15:00,
2013-01-14 12:25:00,37.6,28.7,30.28,WNW,287,3.0,7.0,70,0.00,,,0.00,Wunderground v.1.15,2013-01-14 17:25:00,
2013-01-14 12:30:00,37.8,28.9,30.26,WNW,282,4.0,4.0,70,0.00,,,0.00,Wunderground v.1.15,2013-01-14 17:30:00,
2013-01-14 12:40:00,38.0,28.7,30.26,NNE,30,1.0,2.0,69,0.00,,,0.00,Wunderground v.1.15,2013-01-14 17:40:00,
2013-01-14 12:50:00,37.5,28.6,30.24,North,8,2.0,3.0,70,0.00,,,0.00,Wunderground v.1.15,2013-01-14 17:50:00,
2013-01-14 13:00:00,37.0,28.5,30.23,NNE,25,3.0,3.0,71,0.00,,,0.00,Wunderground v.1.15,2013-01-14 18:00:00,
2013-01-14 13:10:00,37.3,29.1,30.23,NNE,31,3.0,3.0,72,0.00,,,0.00,Wunderground v.1.15,2013-01-14 18:10:00,
2013-01-14 13:15:00,37.3,29.1,30.23,NNE,18,2.0,3.0,72,0.00,,,0.00,Wunderground v.1.15,2013-01-14 18:15:00,
2013-01-14 13:25:00,37.5,28.9,30.23,NNE,14,1.0,3.0,71,0.00,,,0.00,Wunderground v.1.15,2013-01-14 18:25:00,
2013-01-14 13:30:00,37.5,28.9,30.23,North,8,1.0,2.0,71,0.00,,,0.00,Wunderground v.1.15,2013-01-14 18:30:00,
2013-01-14 13:40:00,37.6,28.7,30.23,North,4,2.0,2.0,70,0.00,,,0.00,Wunderground v.1.15,2013-01-14 18:40:00,
2013-01-14 13:50:00,37.6,28.7,30.24,North,6,2.0,2.0,70,0.00,,,0.00,Wunderground v.1.15,2013-01-14 18:50:00,
2013-01-14 14:00:00,37.3,28.8,30.23,North,356,2.0,2.0,71,0.00,,,0.00,Wunderground v.1.15,2013-01-14 19:00:00,
2013-01-14 14:10:00,37.5,28.6,30.23,West,275,2.0,2.0,70,0.00,,,0.00,Wunderground v.1.15,2013-01-14 19:10:00,
2013-01-14 14:15:00,37.6,28.3,30.24,West,265,2.0,2.0,69,0.00,,,0.00,Wunderground v.1.15,2013-01-14 19:15:00,
2013-01-14 14:25:00,37.5,27.9,30.24,North,3,3.0,3.0,68,0.00,,,0.00,Wunderground v.1.15,2013-01-14 19:25:00,
2013-01-14 14:35:00,37.5,27.9,30.25,West,278,2.0,2.0,68,0.00,,,0.00,Wunderground v.1.15,2013-01-14 19:35:00,
2013-01-14 14:40:00,37.5,27.9,30.25,West,261,2.0,8.0,68,0.00,,,0.00,Wunderground v.1.15,2013-01-14 19:40:00,
2013-01-14 14:50:00,37.2,27.6,30.27,West,263,5.0,5.0,68,0.00,,,0.00,Wunderground v.1.15,2013-01-14 19:50:00,
2013-01-14 14:55:00,37.2,27.6,30.27,West,275,3.0,5.0,68,0.00,,,0.00,Wunderground v.1.15,2013-01-14 19:55:00,
2013-01-14 15:00:00,37.3,28.1,30.25,NNE,18,2.0,2.0,69,0.00,,,0.00,Wunderground v.1.15,2013-01-14 20:00:00,
2013-01-14 15:10:00,37.3,27.7,30.25,North,11,2.0,2.0,68,0.00,,,0.00,Wunderground v.1.15,2013-01-14 20:10:00,
2013-01-14 15:20:00,37.0,28.1,30.27,West,265,4.0,5.0,70,0.00,,,0.00,Wunderground v.1.15,2013-01-14 20:20:00,
2013-01-14 15:30:00,36.9,28.4,30.27,North,0,3.0,3.0,71,0.00,,,0.00,Wunderground v.1.15,2013-01-14 20:30:00,
2013-01-14 15:40:00,36.5,28.0,30.27,WNW,298,2.0,2.0,71,0.00,,,0.00,Wunderground v.1.15,2013-01-14 20:40:00,
2013-01-14 15:50:00,36.2,27.7,30.27,West,277,3.0,3.0,71,0.00,,,0.00,Wunderground v.1.15,2013-01-14 20:50:00,
2013-01-14 16:00:00,36.2,27.7,30.28,WNW,288,2.0,2.0,71,0.00,,,0.00,Wunderground v.1.15,2013-01-14 21:00:00,
2013-01-14 16:10:00,35.9,27.4,30.28,West,277,3.0,3.0,71,0.00,,,0.00,Wunderground v.1.15,2013-01-14 21:10:00,
2013-01-14 16:20:00,35.8,27.7,30.30,West,275,1.0,1.0,72,0.00,,,0.00,Wunderground v.1.15,2013-01-14 21:20:00,
2013-01-14 16:30:00,35.6,27.8,30.31,West,275,2.0,2.0,73,0.00,,,0.00,Wunderground v.1.15,2013-01-14 21:30:00,
2013-01-14 16:40:00,35.2,27.1,30.31,WNW,294,3.0,3.0,72,0.00,,,0.00,Wunderground v.1.15,2013-01-14 21:40:00,
2013-01-14 16:45:00,35.0,27.2,30.34,West,261,4.0,4.0,73,0.00,,,0.00,Wunderground v.1.15,2013-01-14 21:45:00,
2013-01-14 16:55:00,34.6,26.8,30.34,NW,325,5.0,8.0,73,0.00,,,0.00,Wunderground v.1.15,2013-01-14 21:55:00,
2013-01-14 17:05:00,34.3,26.9,30.35,West,272,4.0,5.0,74,0.00,,,0.00,Wunderground v.1.15,2013-01-14 22:05:00,
2013-01-14 17:10:00,34.3,26.9,30.35,West,270,3.0,3.0,74,0.00,,,0.00,Wunderground v.1.15,2013-01-14 22:10:00,
2013-01-14 17:20:00,33.7,26.0,30.37,North,8,6.0,6.0,73,0.00,,,0.00,Wunderground v.1.15,2013-01-14 22:20:00,
2013-01-14 17:30:00,33.4,26.0,30.37,WNW,291,3.0,3.0,74,0.00,,,0.00,Wunderground v.1.15,2013-01-14 22:30:00,
2013-01-14 17:40:00,33.1,25.7,30.37,West,267,3.0,3.0,74,0.00,,,0.00,Wunderground v.1.15,2013-01-14 22:40:00,
2013-01-14 17:45:00,32.9,25.5,30.37,West,281,2.0,3.0,74,0.00,,,0.00,Wunderground v.1.15,2013-01-14 22:45:00,
2013-01-14 17:55:00,32.8,25.4,30.37,West,274,2.0,2.0,74,0.00,,,0.00,Wunderground v.1.15,2013-01-14 22:55:00,
2013-01-14 18:05:00,32.8,25.4,30.37,WNW,302,1.0,2.0,74,0.00,,,0.00,Wunderground v.1.15,2013-01-14 23:05:00,
2013-01-14 18:15:00,32.7,25.3,30.37,North,1,1.0,3.0,74,0.00,,,0.00,Wunderground v.1.15,2013-01-14 23:15:00,
2013-01-14 18:20:00,32.7,25.3,30.37,North,8,1.0,1.0,74,0.00,,,0.00,Wunderground v.1.15,2013-01-14 23:20:00,
2013-01-14 18:30:00,32.7,25.3,30.38,North,3,1.0,2.0,74,0.00,,,0.00,Wunderground v.1.15,2013-01-14 23:30:00,
2013-01-14 18:40:00,32.7,25.3,30.38,NNW,347,1.0,2.0,74,0.00,,,0.00,Wunderground v.1.15,2013-01-14 23:40:00,
2013-01-14 18:45:00,32.7,25.3,30.39,North,0,1.0,2.0,74,0.00,,,0.00,Wunderground v.1.15,2013-01-14 23:45:00,
2013-01-14 18:55:00,-999.9,-99.9,30.39,North,32767,-999.0,0.0,255,-99.99,,,0.00,Wunderground v.1.15,2013-01-14 23:55:00,
2013-01-14 19:00:00,-999.9,-99.9,30.38,North,32767,-999.0,0.0,255,-99.99,,,0.00,Wunderground v.1.15,2013-01-15 00:00:00,
2013-01-14 19:10:00,-999.9,-99.9,30.38,North,32767,-999.0,0.0,255,-99.99,,,0.00,Wunderground v.1.15,2013-01-15 00:10:00,
2013-01-14 19:20:00,-999.9,-99.9,30.38,North,32767,-999.0,0.0,255,-99.99,,,0.00,Wunderground v.1.15,2013-01-15 00:20:00,
2013-01-14 19:30:00,-999.9,-99.9,30.36,North,32767,-999.0,0.0,255,-99.99,,,0.00,Wunderground v.1.15,2013-01-15 00:30:00,
2013-01-14 19:39:00,-999.9,-99.9,30.36,North,32767,-999.0,0.0,255,-99.99,,,0.00,Wunderground v.1.15,2013-01-15 00:39:00,
2013-01-14 19:45:00,-999.9,-99.9,30.32,North,32767,-999.0,0.0,255,-99.99,,,0.00,Wunderground v.1.15,2013-01-15 00:45:00,
2013-01-14 19:55:00,-999.9,-99.9,30.32,North,32767,-999.0,0.0,255,-99.99,,,0.00,Wunderground v.1.15,2013-01-15 00:55:00,
2013-01-14 20:00:00,-999.9,-99.9,30.30,North,32767,-999.0,0.0,255,-99.99,,,0.00,Wunderground v.1.15,2013-01-15 01:00:00,
2013-01-14 20:10:00,-999.9,-99.9,30.30,North,32767,-999.0,0.0,255,-99.99,,,0.00,Wunderground v.1.15,2013-01-15 01:10:00,
2013-01-14 20:20:00,-999.9,-99.9,30.30,North,32767,-999.0,0.0,255,-99.99,,,0.00,Wunderground v.1.15,2013-01-15 01:20:00,
2013-01-14 20:30:00,-999.9,-99.9,30.31,North,32767,-999.0,0.0,255,-99.99,,,0.00,Wunderground v.1.15,2013-01-15 01:30:00,
2013-01-14 20:40:00,-999.9,-99.9,30.31,North,32767,-999.0,0.0,255,-99.99,,,0.00,Wunderground v.1.15,2013-01-15 01:40:00,
2013-01-14 20:50:00,-999.9,-99.9,30.34,North,32767,-999.0,0.0,255,-99.99,,,0.00,Wunderground v.1.15,2013-01-15 01:50:00,
2013-01-14 20:55:00,-999.9,-99.9,30.34,North,32767,-999.0,0.0,255,-99.99,,,0.00,Wunderground v.1.15,2013-01-15 01:55:00,
2013-01-14 21:05:00,-999.9,-99.9,-32.77,North,32767,-999.0,0.0,255,-99.99,,,0.00,Wunderground v.1.15,2013-01-15 02:05:00,
2013-01-14 21:10:00,-999.9,-99.9,-32.77,North,32767,-999.0,0.0,255,-99.99,,,0.00,Wunderground v.1.15,2013-01-15 02:10:00,
2013-01-14 21:20:00,31.9,29.0,30.32,NW,304,0.0,1.0,89,0.00,,,0.00,Wunderground v.1.15,2013-01-15 02:20:00,
2013-01-14 21:30:00,31.8,28.9,30.32,WNW,292,1.0,1.0,89,0.00,,,0.00,Wunderground v.1.15,2013-01-15 02:30:00,
2013-01-14 21:40:00,31.6,28.7,30.33,WNW,285,2.0,4.0,89,0.00,,,0.00,Wunderground v.1.15,2013-01-15 02:40:00,
2013-01-14 21:45:00,31.6,29.0,30.33,West,265,2.0,4.0,90,0.00,,,0.00,Wunderground v.1.15,2013-01-15 02:45:00,
2013-01-14 21:55:00,31.5,28.9,30.31,WNW,298,0.0,3.0,90,0.00,,,0.00,Wunderground v.1.15,2013-01-15 02:55:00,
2013-01-14 22:00:00,31.3,28.7,30.31,WNW,295,1.0,1.0,90,0.00,,,0.00,Wunderground v.1.15,2013-01-15 03:00:00,
2013-01-14 22:10:00,31.3,28.7,30.31,WNW,296,1.0,1.0,90,0.00,,,0.00,Wunderground v.1.15,2013-01-15 03:10:00,
2013-01-14 22:20:00,31.5,28.6,30.31,West,280,1.0,1.0,89,0.00,,,0.00,Wunderground v.1.15,2013-01-15 03:20:00,
2013-01-14 22:25:00,31.5,28.6,30.31,West,280,0.0,1.0,89,0.00,,,0.00,Wunderground v.1.15,2013-01-15 03:25:00,
2013-01-14 22:35:00,31.5,28.4,30.30,West,281,0.0,0.0,88,0.00,,,0.00,Wunderground v.1.15,2013-01-15 03:35:00,
2013-01-14 22:45:00,31.6,28.2,30.30,West,281,0.0,0.0,87,0.00,,,0.00,Wunderground v.1.15,2013-01-15 03:45:00,
2013-01-14 22:50:00,31.5,28.1,30.29,West,281,0.0,0.0,87,0.00,,,0.00,Wunderground v.1.15,2013-01-15 03:50:00,
2013-01-14 23:00:00,31.6,28.2,30.29,West,281,0.0,0.0,87,0.00,,,0.00,Wunderground v.1.15,2013-01-15 04:00:00,
2013-01-14 23:05:00,31.6,27.9,30.30,West,281,0.0,0.0,86,0.00,,,0.00,Wunderground v.1.15,2013-01-15 04:05:00,
2013-01-14 23:15:00,31.6,27.9,30.30,West,281,0.0,0.0,86,0.00,,,0.00,Wunderground v.1.15,2013-01-15 04:15:00,
2013-01-14 23:25:00,31.8,28.1,30.27,West,281,0.0,0.0,86,0.00,,,0.00,Wunderground v.1.15,2013-01-15 04:25:00,
2013-01-14 23:30:00,31.8,28.1,30.27,West,281,0.0,0.0,86,0.00,,,0.00,Wunderground v.1.15,2013-01-15 04:30:00,
2013-01-14 23:40:00,31.8,28.1,30.27,West,281,0.0,0.0,86,0.00,,,0.00,Wunderground v.1.15,2013-01-15 04:40:00,
2013-01-14 23:50:00,31.8,28.1,30.27,West,281,0.0,0.0,86,0.00,,,0.00,Wunderground v.1.15,2013-01-15 04:50:00,
2013-01-14 23:59:00,31.9,28.5,30.27,West,281,0.0,0.0,87,0.00,,,0.00,Wunderground v.1.15,2013-01-15 04:59:00,